sensor_id;sensor_type;location;lat;lon;timestamp;P1;durP1;ratioP1;P2;durP2;ratioP2
51943;SDS011;37969;53.132;6.370;2022-12-07T00:01:35;25.73;;;10.70;;
51943;SDS011;37969;53.132;6.370;2022-12-07T00:04:03;35.10;;;12.77;;
51943;SDS011;37969;53.132;6.370;2022-12-07T00:06:31;24.88;;;10.02;;
51943;SDS011;37969;53.132;6.370;2022-12-07T00:08:57;22.77;;;10.43;;
51943;SDS011;37969;53.132;6.370;2022-12-07T00:11:23;11.27;;;2.33;;
51943;SDS011;37969;53.132;6.370;2022-12-07T00:13:54;59.90;;;27.85;;
51943;SDS011;37969;53.132;6.370;2022-12-07T00:16:21;35.00;;;18.50;;
51943;SDS011;37969;53.132;6.370;2022-12-07T00:18:47;15.52;;;2.92;;
51943;SDS011;37969;53.132;6.370;2022-12-07T00:21:15;8.75;;;1.65;;
51943;SDS011;37969;53.132;6.370;2022-12-07T00:23:42;12.15;;;2.40;;
51943;SDS011;37969;53.132;6.370;2022-12-07T00:26:13;9.65;;;1.90;;
51943;SDS011;37969;53.132;6.370;2022-12-07T00:28:40;8.10;;;1.60;;
51943;SDS011;37969;53.132;6.370;2022-12-07T00:31:09;6.93;;;1.65;;
51943;SDS011;37969;53.132;6.370;2022-12-07T00:33:36;8.60;;;1.47;;
51943;SDS011;37969;53.132;6.370;2022-12-07T00:36:03;7.03;;;1.40;;
51943;SDS011;37969;53.132;6.370;2022-12-07T00:38:31;10.65;;;1.50;;
51943;SDS011;37969;53.132;6.370;2022-12-07T00:40:59;10.68;;;1.75;;
51943;SDS011;37969;53.132;6.370;2022-12-07T00:43:25;7.35;;;1.10;;
51943;SDS011;37969;53.132;6.370;2022-12-07T00:45:52;8.02;;;1.13;;
51943;SDS011;37969;53.132;6.370;2022-12-07T00:48:18;9.93;;;1.45;;
51943;SDS011;37969;53.132;6.370;2022-12-07T00:50:44;8.68;;;1.30;;
51943;SDS011;37969;53.132;6.370;2022-12-07T00:53:10;8.20;;;1.13;;
51943;SDS011;37969;53.132;6.370;2022-12-07T00:55:37;4.07;;;1.00;;
51943;SDS011;37969;53.132;6.370;2022-12-07T00:58:03;9.23;;;1.88;;
51943;SDS011;37969;53.132;6.370;2022-12-07T01:00:29;7.38;;;1.35;;
51943;SDS011;37969;53.132;6.370;2022-12-07T01:02:55;9.90;;;1.55;;
51943;SDS011;37969;53.132;6.370;2022-12-07T01:05:21;7.15;;;1.40;;
51943;SDS011;37969;53.132;6.370;2022-12-07T01:07:48;9.00;;;1.52;;
51943;SDS011;37969;53.132;6.370;2022-12-07T01:10:14;5.28;;;0.98;;
51943;SDS011;37969;53.132;6.370;2022-12-07T01:12:40;8.88;;;2.70;;
51943;SDS011;37969;53.132;6.370;2022-12-07T01:15:07;7.88;;;1.67;;
51943;SDS011;37969;53.132;6.370;2022-12-07T01:17:33;19.67;;;8.68;;
51943;SDS011;37969;53.132;6.370;2022-12-07T01:20:00;8.95;;;2.88;;
51943;SDS011;37969;53.132;6.370;2022-12-07T01:22:26;11.95;;;1.85;;
51943;SDS011;37969;53.132;6.370;2022-12-07T01:24:52;7.53;;;1.63;;
51943;SDS011;37969;53.132;6.370;2022-12-07T01:27:18;9.15;;;2.88;;
51943;SDS011;37969;53.132;6.370;2022-12-07T01:29:44;11.65;;;1.42;;
51943;SDS011;37969;53.132;6.370;2022-12-07T01:32:11;11.15;;;1.63;;
51943;SDS011;37969;53.132;6.370;2022-12-07T01:34:38;10.90;;;2.00;;
51943;SDS011;37969;53.132;6.370;2022-12-07T01:37:04;12.20;;;2.42;;
51943;SDS011;37969;53.132;6.370;2022-12-07T01:39:30;13.80;;;1.60;;
51943;SDS011;37969;53.132;6.370;2022-12-07T01:41:56;6.72;;;1.73;;
51943;SDS011;37969;53.132;6.370;2022-12-07T01:44:24;12.65;;;1.98;;
51943;SDS011;37969;53.132;6.370;2022-12-07T01:49:19;11.82;;;1.40;;
51943;SDS011;37969;53.132;6.370;2022-12-07T01:51:47;16.33;;;1.65;;
51943;SDS011;37969;53.132;6.370;2022-12-07T01:54:13;11.10;;;1.73;;
51943;SDS011;37969;53.132;6.370;2022-12-07T01:56:41;13.07;;;1.83;;
51943;SDS011;37969;53.132;6.370;2022-12-07T01:59:08;12.68;;;1.50;;
51943;SDS011;37969;53.132;6.370;2022-12-07T02:01:34;13.80;;;2.28;;
51943;SDS011;37969;53.132;6.370;2022-12-07T02:04:00;13.07;;;1.60;;
51943;SDS011;37969;53.132;6.370;2022-12-07T02:06:27;17.52;;;2.63;;
51943;SDS011;37969;53.132;6.370;2022-12-07T02:08:53;9.75;;;2.03;;
51943;SDS011;37969;53.132;6.370;2022-12-07T02:11:19;20.98;;;2.05;;
51943;SDS011;37969;53.132;6.370;2022-12-07T02:13:46;9.52;;;1.50;;
51943;SDS011;37969;53.132;6.370;2022-12-07T02:18:58;11.75;;;1.67;;
51943;SDS011;37969;53.132;6.370;2022-12-07T02:21:39;17.38;;;6.80;;
51943;SDS011;37969;53.132;6.370;2022-12-07T02:26:52;7.95;;;2.13;;
51943;SDS011;37969;53.132;6.370;2022-12-07T02:29:22;11.15;;;1.52;;
51943;SDS011;37969;53.132;6.370;2022-12-07T02:31:56;9.60;;;1.70;;
51943;SDS011;37969;53.132;6.370;2022-12-07T02:34:28;15.98;;;1.73;;
51943;SDS011;37969;53.132;6.370;2022-12-07T02:36:56;12.05;;;1.73;;
51943;SDS011;37969;53.132;6.370;2022-12-07T02:39:27;13.50;;;2.13;;
51943;SDS011;37969;53.132;6.370;2022-12-07T02:41:55;11.93;;;2.47;;
51943;SDS011;37969;53.132;6.370;2022-12-07T02:46:54;17.25;;;2.03;;
51943;SDS011;37969;53.132;6.370;2022-12-07T02:49:33;12.65;;;2.70;;
51943;SDS011;37969;53.132;6.370;2022-12-07T02:51:59;18.08;;;2.40;;
51943;SDS011;37969;53.132;6.370;2022-12-07T02:54:25;9.27;;;3.80;;
51943;SDS011;37969;53.132;6.370;2022-12-07T02:56:53;22.58;;;8.05;;
51943;SDS011;37969;53.132;6.370;2022-12-07T03:04:28;11.70;;;1.95;;
51943;SDS011;37969;53.132;6.370;2022-12-07T03:06:58;17.25;;;2.10;;
51943;SDS011;37969;53.132;6.370;2022-12-07T03:09:28;12.80;;;2.08;;
51943;SDS011;37969;53.132;6.370;2022-12-07T03:12:00;12.65;;;2.08;;
51943;SDS011;37969;53.132;6.370;2022-12-07T03:14:36;10.00;;;1.40;;
51943;SDS011;37969;53.132;6.370;2022-12-07T03:17:09;12.68;;;2.75;;
51943;SDS011;37969;53.132;6.370;2022-12-07T03:19:36;13.23;;;2.78;;
51943;SDS011;37969;53.132;6.370;2022-12-07T03:22:04;15.55;;;2.17;;
51943;SDS011;37969;53.132;6.370;2022-12-07T03:24:33;12.15;;;2.22;;
51943;SDS011;37969;53.132;6.370;2022-12-07T03:27:03;9.18;;;2.00;;
51943;SDS011;37969;53.132;6.370;2022-12-07T03:29:34;12.17;;;1.70;;
51943;SDS011;37969;53.132;6.370;2022-12-07T03:32:03;7.63;;;1.60;;
51943;SDS011;37969;53.132;6.370;2022-12-07T03:37:00;13.52;;;1.73;;
51943;SDS011;37969;53.132;6.370;2022-12-07T03:39:30;10.30;;;1.40;;
51943;SDS011;37969;53.132;6.370;2022-12-07T03:41:59;15.38;;;1.85;;
51943;SDS011;37969;53.132;6.370;2022-12-07T03:44:26;16.42;;;1.80;;
51943;SDS011;37969;53.132;6.370;2022-12-07T03:47:04;9.77;;;1.38;;
51943;SDS011;37969;53.132;6.370;2022-12-07T03:49:34;10.73;;;1.38;;
51943;SDS011;37969;53.132;6.370;2022-12-07T03:52:07;20.23;;;2.03;;
51943;SDS011;37969;53.132;6.370;2022-12-07T03:54:36;11.25;;;2.05;;
51943;SDS011;37969;53.132;6.370;2022-12-07T03:57:05;13.27;;;1.50;;
51943;SDS011;37969;53.132;6.370;2022-12-07T03:59:32;17.00;;;1.77;;
51943;SDS011;37969;53.132;6.370;2022-12-07T04:02:01;12.15;;;1.80;;
51943;SDS011;37969;53.132;6.370;2022-12-07T04:04:28;16.35;;;1.67;;
51943;SDS011;37969;53.132;6.370;2022-12-07T04:06:54;9.68;;;1.90;;
51943;SDS011;37969;53.132;6.370;2022-12-07T04:09:20;13.55;;;1.42;;
51943;SDS011;37969;53.132;6.370;2022-12-07T04:11:47;18.60;;;1.67;;
51943;SDS011;37969;53.132;6.370;2022-12-07T04:14:13;14.57;;;1.73;;
51943;SDS011;37969;53.132;6.370;2022-12-07T04:16:46;13.63;;;1.70;;
51943;SDS011;37969;53.132;6.370;2022-12-07T04:19:12;11.82;;;1.92;;
51943;SDS011;37969;53.132;6.370;2022-12-07T04:21:38;8.77;;;1.35;;
51943;SDS011;37969;53.132;6.370;2022-12-07T04:24:05;17.42;;;1.65;;
51943;SDS011;37969;53.132;6.370;2022-12-07T04:26:31;9.68;;;1.02;;
51943;SDS011;37969;53.132;6.370;2022-12-07T04:28:57;11.32;;;1.40;;
51943;SDS011;37969;53.132;6.370;2022-12-07T04:31:23;18.35;;;2.35;;
51943;SDS011;37969;53.132;6.370;2022-12-07T04:33:49;13.75;;;1.70;;
51943;SDS011;37969;53.132;6.370;2022-12-07T04:36:15;11.00;;;1.30;;
51943;SDS011;37969;53.132;6.370;2022-12-07T04:38:41;9.57;;;1.75;;
51943;SDS011;37969;53.132;6.370;2022-12-07T04:41:09;11.02;;;1.83;;
51943;SDS011;37969;53.132;6.370;2022-12-07T04:43:35;15.95;;;2.55;;
51943;SDS011;37969;53.132;6.370;2022-12-07T04:46:01;10.88;;;2.33;;
51943;SDS011;37969;53.132;6.370;2022-12-07T04:48:28;19.13;;;2.35;;
51943;SDS011;37969;53.132;6.370;2022-12-07T04:50:54;10.63;;;2.28;;
51943;SDS011;37969;53.132;6.370;2022-12-07T04:53:20;13.18;;;1.70;;
51943;SDS011;37969;53.132;6.370;2022-12-07T04:55:46;12.15;;;1.90;;
51943;SDS011;37969;53.132;6.370;2022-12-07T04:58:12;19.23;;;2.33;;
51943;SDS011;37969;53.132;6.370;2022-12-07T05:00:39;17.23;;;2.05;;
51943;SDS011;37969;53.132;6.370;2022-12-07T05:03:05;12.57;;;1.90;;
51943;SDS011;37969;53.132;6.370;2022-12-07T05:05:31;10.85;;;1.60;;
51943;SDS011;37969;53.132;6.370;2022-12-07T05:07:57;25.42;;;3.50;;
51943;SDS011;37969;53.132;6.370;2022-12-07T05:10:24;13.20;;;1.60;;
51943;SDS011;37969;53.132;6.370;2022-12-07T05:12:50;15.50;;;2.65;;
51943;SDS011;37969;53.132;6.370;2022-12-07T05:15:16;15.13;;;2.05;;
51943;SDS011;37969;53.132;6.370;2022-12-07T05:17:43;102.40;;;48.10;;
51943;SDS011;37969;53.132;6.370;2022-12-07T05:20:09;53.95;;;23.67;;
51943;SDS011;37969;53.132;6.370;2022-12-07T05:22:35;135.23;;;64.90;;
51943;SDS011;37969;53.132;6.370;2022-12-07T05:25:01;107.93;;;55.80;;
51943;SDS011;37969;53.132;6.370;2022-12-07T05:27:28;32.97;;;15.25;;
51943;SDS011;37969;53.132;6.370;2022-12-07T05:29:54;29.05;;;11.20;;
51943;SDS011;37969;53.132;6.370;2022-12-07T05:32:20;24.02;;;11.63;;
51943;SDS011;37969;53.132;6.370;2022-12-07T05:34:46;24.77;;;12.60;;
51943;SDS011;37969;53.132;6.370;2022-12-07T05:37:12;58.67;;;34.35;;
51943;SDS011;37969;53.132;6.370;2022-12-07T05:39:38;151.43;;;76.55;;
51943;SDS011;37969;53.132;6.370;2022-12-07T05:42:08;41.30;;;23.37;;
51943;SDS011;37969;53.132;6.370;2022-12-07T05:44:40;16.35;;;2.20;;
51943;SDS011;37969;53.132;6.370;2022-12-07T05:47:07;8.40;;;1.38;;
51943;SDS011;37969;53.132;6.370;2022-12-07T05:49:33;16.58;;;2.15;;
51943;SDS011;37969;53.132;6.370;2022-12-07T05:51:59;20.60;;;2.25;;
51943;SDS011;37969;53.132;6.370;2022-12-07T05:54:26;12.75;;;1.70;;
51943;SDS011;37969;53.132;6.370;2022-12-07T05:56:52;8.20;;;1.48;;
51943;SDS011;37969;53.132;6.370;2022-12-07T05:59:18;17.33;;;2.00;;
51943;SDS011;37969;53.132;6.370;2022-12-07T06:01:53;13.43;;;2.05;;
51943;SDS011;37969;53.132;6.370;2022-12-07T06:04:20;15.10;;;3.75;;
51943;SDS011;37969;53.132;6.370;2022-12-07T06:06:46;11.52;;;4.65;;
51943;SDS011;37969;53.132;6.370;2022-12-07T06:09:13;15.43;;;1.88;;
51943;SDS011;37969;53.132;6.370;2022-12-07T06:11:39;6.13;;;1.20;;
51943;SDS011;37969;53.132;6.370;2022-12-07T06:14:24;9.60;;;1.30;;
51943;SDS011;37969;53.132;6.370;2022-12-07T06:16:50;6.55;;;1.23;;
51943;SDS011;37969;53.132;6.370;2022-12-07T06:19:17;9.10;;;1.15;;
51943;SDS011;37969;53.132;6.370;2022-12-07T06:21:43;6.38;;;1.38;;
51943;SDS011;37969;53.132;6.370;2022-12-07T06:24:10;5.80;;;1.02;;
51943;SDS011;37969;53.132;6.370;2022-12-07T06:26:37;6.68;;;1.20;;
51943;SDS011;37969;53.132;6.370;2022-12-07T06:29:03;5.50;;;0.80;;
51943;SDS011;37969;53.132;6.370;2022-12-07T06:31:29;15.32;;;1.98;;
51943;SDS011;37969;53.132;6.370;2022-12-07T06:33:58;8.60;;;1.23;;
51943;SDS011;37969;53.132;6.370;2022-12-07T06:36:24;7.53;;;1.00;;
51943;SDS011;37969;53.132;6.370;2022-12-07T06:38:50;5.63;;;1.45;;
51943;SDS011;37969;53.132;6.370;2022-12-07T06:41:17;8.00;;;1.27;;
51943;SDS011;37969;53.132;6.370;2022-12-07T06:43:43;7.95;;;1.10;;
51943;SDS011;37969;53.132;6.370;2022-12-07T06:46:09;10.05;;;1.30;;
51943;SDS011;37969;53.132;6.370;2022-12-07T06:48:35;7.85;;;1.40;;
51943;SDS011;37969;53.132;6.370;2022-12-07T06:51:01;18.73;;;9.65;;
51943;SDS011;37969;53.132;6.370;2022-12-07T06:53:27;11.23;;;4.95;;
51943;SDS011;37969;53.132;6.370;2022-12-07T06:55:54;13.88;;;8.80;;
51943;SDS011;37969;53.132;6.370;2022-12-07T06:58:20;21.40;;;11.02;;
51943;SDS011;37969;53.132;6.370;2022-12-07T07:00:47;22.92;;;12.13;;
51943;SDS011;37969;53.132;6.370;2022-12-07T07:03:14;24.40;;;8.68;;
51943;SDS011;37969;53.132;6.370;2022-12-07T07:05:41;23.73;;;6.88;;
51943;SDS011;37969;53.132;6.370;2022-12-07T07:08:07;22.13;;;8.70;;
51943;SDS011;37969;53.132;6.370;2022-12-07T07:10:33;6.93;;;2.53;;
51943;SDS011;37969;53.132;6.370;2022-12-07T07:13:00;11.82;;;2.05;;
51943;SDS011;37969;53.132;6.370;2022-12-07T07:15:26;14.27;;;1.83;;
51943;SDS011;37969;53.132;6.370;2022-12-07T07:17:52;10.10;;;1.67;;
51943;SDS011;37969;53.132;6.370;2022-12-07T07:20:18;11.30;;;1.63;;
51943;SDS011;37969;53.132;6.370;2022-12-07T07:22:45;9.48;;;1.50;;
51943;SDS011;37969;53.132;6.370;2022-12-07T07:25:11;9.32;;;1.70;;
51943;SDS011;37969;53.132;6.370;2022-12-07T07:27:37;14.25;;;2.58;;
51943;SDS011;37969;53.132;6.370;2022-12-07T07:30:03;8.55;;;2.00;;
51943;SDS011;37969;53.132;6.370;2022-12-07T07:32:30;14.25;;;2.55;;
51943;SDS011;37969;53.132;6.370;2022-12-07T07:34:56;13.15;;;3.92;;
51943;SDS011;37969;53.132;6.370;2022-12-07T07:37:22;20.30;;;7.15;;
51943;SDS011;37969;53.132;6.370;2022-12-07T07:39:48;20.15;;;5.90;;
51943;SDS011;37969;53.132;6.370;2022-12-07T07:42:14;17.88;;;6.32;;
51943;SDS011;37969;53.132;6.370;2022-12-07T07:44:40;13.85;;;5.13;;
51943;SDS011;37969;53.132;6.370;2022-12-07T07:47:07;7.30;;;3.20;;
51943;SDS011;37969;53.132;6.370;2022-12-07T07:49:33;13.15;;;2.30;;
51943;SDS011;37969;53.132;6.370;2022-12-07T07:51:59;14.80;;;2.60;;
51943;SDS011;37969;53.132;6.370;2022-12-07T07:54:25;22.45;;;4.63;;
51943;SDS011;37969;53.132;6.370;2022-12-07T07:56:52;15.68;;;5.53;;
51943;SDS011;37969;53.132;6.370;2022-12-07T07:59:18;21.67;;;6.15;;
51943;SDS011;37969;53.132;6.370;2022-12-07T08:01:44;16.13;;;4.97;;
51943;SDS011;37969;53.132;6.370;2022-12-07T08:04:10;12.82;;;3.15;;
51943;SDS011;37969;53.132;6.370;2022-12-07T08:06:37;16.42;;;3.72;;
51943;SDS011;37969;53.132;6.370;2022-12-07T08:09:03;16.08;;;3.75;;
51943;SDS011;37969;53.132;6.370;2022-12-07T08:11:31;8.52;;;1.90;;
51943;SDS011;37969;53.132;6.370;2022-12-07T08:13:57;10.70;;;1.73;;
51943;SDS011;37969;53.132;6.370;2022-12-07T08:16:23;18.80;;;4.60;;
51943;SDS011;37969;53.132;6.370;2022-12-07T08:18:49;19.45;;;3.50;;
51943;SDS011;37969;53.132;6.370;2022-12-07T08:21:16;18.02;;;2.80;;
51943;SDS011;37969;53.132;6.370;2022-12-07T08:23:42;19.38;;;2.45;;
51943;SDS011;37969;53.132;6.370;2022-12-07T08:26:09;22.58;;;6.97;;
51943;SDS011;37969;53.132;6.370;2022-12-07T08:28:36;17.20;;;5.68;;
51943;SDS011;37969;53.132;6.370;2022-12-07T08:31:03;16.13;;;5.55;;
51943;SDS011;37969;53.132;6.370;2022-12-07T08:33:30;17.05;;;3.60;;
51943;SDS011;37969;53.132;6.370;2022-12-07T08:36:00;21.33;;;4.82;;
51943;SDS011;37969;53.132;6.370;2022-12-07T08:38:26;12.80;;;2.83;;
51943;SDS011;37969;53.132;6.370;2022-12-07T08:40:54;25.88;;;6.25;;
51943;SDS011;37969;53.132;6.370;2022-12-07T08:43:21;19.17;;;4.57;;
51943;SDS011;37969;53.132;6.370;2022-12-07T08:45:47;31.15;;;12.55;;
51943;SDS011;37969;53.132;6.370;2022-12-07T08:48:15;35.17;;;12.45;;
51943;SDS011;37969;53.132;6.370;2022-12-07T08:50:46;26.00;;;7.93;;
51943;SDS011;37969;53.132;6.370;2022-12-07T08:53:13;26.60;;;9.93;;
51943;SDS011;37969;53.132;6.370;2022-12-07T08:55:39;18.38;;;6.32;;
51943;SDS011;37969;53.132;6.370;2022-12-07T08:58:05;16.33;;;2.47;;
51943;SDS011;37969;53.132;6.370;2022-12-07T09:00:32;18.58;;;2.92;;
51943;SDS011;37969;53.132;6.370;2022-12-07T09:02:58;13.98;;;2.58;;
51943;SDS011;37969;53.132;6.370;2022-12-07T09:05:24;12.90;;;2.40;;
51943;SDS011;37969;53.132;6.370;2022-12-07T09:07:51;14.35;;;3.20;;
51943;SDS011;37969;53.132;6.370;2022-12-07T09:10:20;23.30;;;3.97;;
51943;SDS011;37969;53.132;6.370;2022-12-07T09:12:46;24.90;;;4.93;;
51943;SDS011;37969;53.132;6.370;2022-12-07T09:15:13;25.92;;;6.38;;
51943;SDS011;37969;53.132;6.370;2022-12-07T09:17:39;33.55;;;7.22;;
51943;SDS011;37969;53.132;6.370;2022-12-07T09:20:05;15.15;;;2.63;;
51943;SDS011;37969;53.132;6.370;2022-12-07T09:22:32;14.45;;;3.42;;
51943;SDS011;37969;53.132;6.370;2022-12-07T09:24:58;20.42;;;4.72;;
51943;SDS011;37969;53.132;6.370;2022-12-07T09:27:25;17.85;;;4.38;;
51943;SDS011;37969;53.132;6.370;2022-12-07T09:29:51;19.92;;;4.53;;
51943;SDS011;37969;53.132;6.370;2022-12-07T09:32:17;15.80;;;3.47;;
51943;SDS011;37969;53.132;6.370;2022-12-07T09:34:43;10.73;;;2.67;;
51943;SDS011;37969;53.132;6.370;2022-12-07T09:37:10;10.55;;;2.25;;
51943;SDS011;37969;53.132;6.370;2022-12-07T09:39:37;13.50;;;4.15;;
51943;SDS011;37969;53.132;6.370;2022-12-07T09:42:04;21.17;;;5.38;;
51943;SDS011;37969;53.132;6.370;2022-12-07T09:44:30;23.80;;;8.25;;
51943;SDS011;37969;53.132;6.370;2022-12-07T09:46:57;32.63;;;12.32;;
51943;SDS011;37969;53.132;6.370;2022-12-07T09:49:25;21.55;;;6.78;;
51943;SDS011;37969;53.132;6.370;2022-12-07T09:52:00;34.55;;;14.25;;
51943;SDS011;37969;53.132;6.370;2022-12-07T09:54:27;29.38;;;10.48;;
51943;SDS011;37969;53.132;6.370;2022-12-07T09:56:54;58.03;;;25.98;;
51943;SDS011;37969;53.132;6.370;2022-12-07T09:59:20;76.38;;;29.63;;
51943;SDS011;37969;53.132;6.370;2022-12-07T10:01:47;43.08;;;14.95;;
51943;SDS011;37969;53.132;6.370;2022-12-07T10:04:16;31.65;;;11.02;;
51943;SDS011;37969;53.132;6.370;2022-12-07T10:06:44;21.52;;;7.00;;
51943;SDS011;37969;53.132;6.370;2022-12-07T10:09:11;20.73;;;5.03;;
51943;SDS011;37969;53.132;6.370;2022-12-07T10:14:24;20.08;;;7.40;;
51943;SDS011;37969;53.132;6.370;2022-12-07T10:16:51;17.48;;;5.07;;
51943;SDS011;37969;53.132;6.370;2022-12-07T10:19:23;17.40;;;5.07;;
51943;SDS011;37969;53.132;6.370;2022-12-07T10:22:00;23.90;;;7.40;;
51943;SDS011;37969;53.132;6.370;2022-12-07T10:24:26;14.27;;;1.92;;
51943;SDS011;37969;53.132;6.370;2022-12-07T10:26:53;26.42;;;10.35;;
51943;SDS011;37969;53.132;6.370;2022-12-07T10:29:24;17.55;;;6.88;;
51943;SDS011;37969;53.132;6.370;2022-12-07T10:31:52;15.98;;;3.90;;
51943;SDS011;37969;53.132;6.370;2022-12-07T10:34:22;12.63;;;2.25;;
51943;SDS011;37969;53.132;6.370;2022-12-07T10:36:49;14.30;;;4.03;;
51943;SDS011;37969;53.132;6.370;2022-12-07T10:39:18;16.85;;;4.53;;
51943;SDS011;37969;53.132;6.370;2022-12-07T10:41:52;18.83;;;4.80;;
51943;SDS011;37969;53.132;6.370;2022-12-07T10:44:22;29.50;;;7.10;;
51943;SDS011;37969;53.132;6.370;2022-12-07T10:54:12;14.38;;;3.92;;
51943;SDS011;37969;53.132;6.370;2022-12-07T10:56:50;11.25;;;1.95;;
51943;SDS011;37969;53.132;6.370;2022-12-07T10:59:24;8.77;;;1.80;;
51943;SDS011;37969;53.132;6.370;2022-12-07T11:02:06;8.05;;;1.40;;
51943;SDS011;37969;53.132;6.370;2022-12-07T11:07:11;6.75;;;1.40;;
51943;SDS011;37969;53.132;6.370;2022-12-07T11:09:55;7.60;;;1.17;;
51943;SDS011;37969;53.132;6.370;2022-12-07T11:12:28;7.30;;;0.80;;
51943;SDS011;37969;53.132;6.370;2022-12-07T11:14:59;6.03;;;1.23;;
51943;SDS011;37969;53.132;6.370;2022-12-07T11:17:31;8.43;;;1.10;;
51943;SDS011;37969;53.132;6.370;2022-12-07T11:20:05;4.13;;;0.80;;
51943;SDS011;37969;53.132;6.370;2022-12-07T11:22:42;6.45;;;1.30;;
51943;SDS011;37969;53.132;6.370;2022-12-07T11:27:41;3.90;;;1.13;;
51943;SDS011;37969;53.132;6.370;2022-12-07T11:30:12;2.33;;;0.80;;
51943;SDS011;37969;53.132;6.370;2022-12-07T11:35:11;7.88;;;1.02;;
51943;SDS011;37969;53.132;6.370;2022-12-07T11:37:42;7.68;;;1.25;;
51943;SDS011;37969;53.132;6.370;2022-12-07T11:42:37;9.50;;;1.20;;
51943;SDS011;37969;53.132;6.370;2022-12-07T11:47:38;5.55;;;0.85;;
51943;SDS011;37969;53.132;6.370;2022-12-07T11:50:20;5.53;;;1.10;;
51943;SDS011;37969;53.132;6.370;2022-12-07T11:52:48;6.70;;;0.98;;
51943;SDS011;37969;53.132;6.370;2022-12-07T11:55:19;6.00;;;0.82;;
51943;SDS011;37969;53.132;6.370;2022-12-07T11:57:46;8.50;;;1.33;;
51943;SDS011;37969;53.132;6.370;2022-12-07T12:00:15;7.90;;;0.98;;
51943;SDS011;37969;53.132;6.370;2022-12-07T12:02:48;8.45;;;1.30;;
51943;SDS011;37969;53.132;6.370;2022-12-07T12:05:16;9.45;;;1.10;;
51943;SDS011;37969;53.132;6.370;2022-12-07T12:07:43;8.23;;;1.20;;
51943;SDS011;37969;53.132;6.370;2022-12-07T12:10:19;11.32;;;1.58;;
51943;SDS011;37969;53.132;6.370;2022-12-07T12:17:56;6.63;;;1.50;;
51943;SDS011;37969;53.132;6.370;2022-12-07T12:20:28;7.60;;;1.52;;
51943;SDS011;37969;53.132;6.370;2022-12-07T12:23:01;11.50;;;1.70;;
51943;SDS011;37969;53.132;6.370;2022-12-07T12:25:34;11.15;;;2.08;;
51943;SDS011;37969;53.132;6.370;2022-12-07T12:28:02;9.43;;;1.70;;
51943;SDS011;37969;53.132;6.370;2022-12-07T12:30:35;7.68;;;1.35;;
51943;SDS011;37969;53.132;6.370;2022-12-07T12:33:03;5.03;;;1.05;;
51943;SDS011;37969;53.132;6.370;2022-12-07T12:35:31;3.95;;;0.98;;
51943;SDS011;37969;53.132;6.370;2022-12-07T12:38:20;3.63;;;0.60;;
51943;SDS011;37969;53.132;6.370;2022-12-07T12:40:49;4.35;;;1.45;;
51943;SDS011;37969;53.132;6.370;2022-12-07T12:48:45;6.07;;;1.20;;
51943;SDS011;37969;53.132;6.370;2022-12-07T12:51:38;10.35;;;1.15;;
51943;SDS011;37969;53.132;6.370;2022-12-07T12:54:05;4.03;;;0.57;;
51943;SDS011;37969;53.132;6.370;2022-12-07T12:56:41;5.28;;;0.63;;
51943;SDS011;37969;53.132;6.370;2022-12-07T13:01:48;6.40;;;0.98;;
51943;SDS011;37969;53.132;6.370;2022-12-07T13:04:18;6.68;;;0.70;;
51943;SDS011;37969;53.132;6.370;2022-12-07T13:06:47;4.13;;;0.82;;
51943;SDS011;37969;53.132;6.370;2022-12-07T13:09:19;5.22;;;0.98;;
51943;SDS011;37969;53.132;6.370;2022-12-07T13:11:47;4.70;;;0.82;;
51943;SDS011;37969;53.132;6.370;2022-12-07T13:16:58;5.95;;;1.67;;
51943;SDS011;37969;53.132;6.370;2022-12-07T13:24:56;5.40;;;1.13;;
51943;SDS011;37969;53.132;6.370;2022-12-07T13:27:24;4.05;;;1.30;;
51943;SDS011;37969;53.132;6.370;2022-12-07T13:29:51;4.65;;;1.77;;
51943;SDS011;37969;53.132;6.370;2022-12-07T13:32:22;6.50;;;1.25;;
51943;SDS011;37969;53.132;6.370;2022-12-07T13:34:49;5.68;;;1.50;;
51943;SDS011;37969;53.132;6.370;2022-12-07T13:37:20;5.80;;;1.75;;
51943;SDS011;37969;53.132;6.370;2022-12-07T13:39:49;6.75;;;1.50;;
51943;SDS011;37969;53.132;6.370;2022-12-07T13:42:27;8.88;;;1.67;;
51943;SDS011;37969;53.132;6.370;2022-12-07T13:44:54;5.07;;;1.80;;
51943;SDS011;37969;53.132;6.370;2022-12-07T13:47:25;9.90;;;2.55;;
51943;SDS011;37969;53.132;6.370;2022-12-07T13:49:55;7.88;;;1.67;;
51943;SDS011;37969;53.132;6.370;2022-12-07T13:52:25;9.35;;;1.80;;
51943;SDS011;37969;53.132;6.370;2022-12-07T13:55:00;8.68;;;1.95;;
51943;SDS011;37969;53.132;6.370;2022-12-07T13:57:27;11.60;;;1.80;;
51943;SDS011;37969;53.132;6.370;2022-12-07T13:59:55;2.35;;;1.10;;
51943;SDS011;37969;53.132;6.370;2022-12-07T14:02:27;3.85;;;1.20;;
51943;SDS011;37969;53.132;6.370;2022-12-07T14:05:06;6.10;;;1.55;;
51943;SDS011;37969;53.132;6.370;2022-12-07T14:07:32;8.00;;;1.60;;
51943;SDS011;37969;53.132;6.370;2022-12-07T14:10:01;9.05;;;1.67;;
51943;SDS011;37969;53.132;6.370;2022-12-07T14:12:28;7.15;;;1.67;;
51943;SDS011;37969;53.132;6.370;2022-12-07T14:14:55;5.80;;;1.48;;
51943;SDS011;37969;53.132;6.370;2022-12-07T14:17:22;10.45;;;1.40;;
51943;SDS011;37969;53.132;6.370;2022-12-07T14:19:50;11.68;;;1.52;;
51943;SDS011;37969;53.132;6.370;2022-12-07T14:22:18;5.30;;;1.30;;
51943;SDS011;37969;53.132;6.370;2022-12-07T14:24:45;9.55;;;1.85;;
51943;SDS011;37969;53.132;6.370;2022-12-07T14:27:16;7.82;;;1.70;;
51943;SDS011;37969;53.132;6.370;2022-12-07T14:29:43;13.38;;;2.92;;
51943;SDS011;37969;53.132;6.370;2022-12-07T14:32:15;13.18;;;2.88;;
51943;SDS011;37969;53.132;6.370;2022-12-07T14:34:54;6.47;;;1.33;;
51943;SDS011;37969;53.132;6.370;2022-12-07T14:37:20;7.68;;;1.77;;
51943;SDS011;37969;53.132;6.370;2022-12-07T14:39:46;6.18;;;1.45;;
51943;SDS011;37969;53.132;6.370;2022-12-07T14:42:12;3.85;;;0.93;;
51943;SDS011;37969;53.132;6.370;2022-12-07T14:44:38;4.93;;;1.00;;
51943;SDS011;37969;53.132;6.370;2022-12-07T14:47:04;6.03;;;0.60;;
51943;SDS011;37969;53.132;6.370;2022-12-07T14:49:30;3.72;;;0.70;;
51943;SDS011;37969;53.132;6.370;2022-12-07T14:51:56;6.40;;;1.02;;
51943;SDS011;37969;53.132;6.370;2022-12-07T14:54:24;4.68;;;0.98;;
51943;SDS011;37969;53.132;6.370;2022-12-07T14:56:52;6.57;;;1.00;;
51943;SDS011;37969;53.132;6.370;2022-12-07T14:59:18;6.25;;;1.17;;
51943;SDS011;37969;53.132;6.370;2022-12-07T15:01:44;8.07;;;0.98;;
51943;SDS011;37969;53.132;6.370;2022-12-07T15:04:11;5.57;;;1.17;;
51943;SDS011;37969;53.132;6.370;2022-12-07T15:06:37;6.93;;;1.15;;
51943;SDS011;37969;53.132;6.370;2022-12-07T15:09:03;3.80;;;0.90;;
51943;SDS011;37969;53.132;6.370;2022-12-07T15:11:29;5.90;;;1.30;;
51943;SDS011;37969;53.132;6.370;2022-12-07T15:13:55;13.48;;;7.60;;
51943;SDS011;37969;53.132;6.370;2022-12-07T15:16:36;11.07;;;4.05;;
51943;SDS011;37969;53.132;6.370;2022-12-07T15:19:02;17.13;;;9.63;;
51943;SDS011;37969;53.132;6.370;2022-12-07T15:21:29;13.35;;;5.95;;
51943;SDS011;37969;53.132;6.370;2022-12-07T15:23:55;7.07;;;1.60;;
51943;SDS011;37969;53.132;6.370;2022-12-07T15:26:21;10.23;;;1.55;;
51943;SDS011;37969;53.132;6.370;2022-12-07T15:28:48;10.57;;;2.13;;
51943;SDS011;37969;53.132;6.370;2022-12-07T15:31:14;4.72;;;1.83;;
51943;SDS011;37969;53.132;6.370;2022-12-07T15:33:41;37.85;;;22.92;;
51943;SDS011;37969;53.132;6.370;2022-12-07T15:36:07;38.95;;;24.88;;
51943;SDS011;37969;53.132;6.370;2022-12-07T15:38:34;31.95;;;19.45;;
51943;SDS011;37969;53.132;6.370;2022-12-07T15:41:00;230.27;;;130.38;;
51943;SDS011;37969;53.132;6.370;2022-12-07T15:43:27;136.98;;;74.97;;
51943;SDS011;37969;53.132;6.370;2022-12-07T15:46:11;165.40;;;88.13;;